Time;durP1;ratioP1;P1;durP2;ratioP2;P2;SDS_P1;SDS_P2;PMS_P1;PMS_P2;Temp;Humidity;BMP_temperature;BMP_pressure;BME280_temperature;BME280_humidity;BME280_pressure;Samples;Min_cycle;Max_cycle;Signal;HPM_P1;HPM_P2
2021/11/27 00:18:16;;;;;;;4.45;4.05;;;;;;;;;;4650435;28;20111;-62
2021/11/27 00:20:46;;;;;;;4.70;4.20;;;;;;;;;;4225092;33;20092;-62
2021/11/27 00:23:13;;;;;;;4.55;4.15;;;;;;;;;;4227436;33;20113;-62
2021/11/27 00:25:41;;;;;;;4.95;4.45;;;;;;;;;;4219002;34;20097;-63
2021/11/27 00:28:07;;;;;;;4.37;3.97;;;;;;;;;;4227511;33;20521;-62
2021/11/27 00:30:35;;;;;;;4.35;3.95;;;;;;;;;;4232965;33;20121;-62
2021/11/27 00:33:02;;;;;;;5.85;4.65;;;;;;;;;;4232420;33;20125;-61
2021/11/27 00:35:28;;;;;;;4.68;3.87;;;;;;;;;;4230637;33;20097;-62
2021/11/27 00:37:56;;;;;;;4.82;4.32;;;;;;;;;;4218758;34;20110;-61
2021/11/27 00:40:23;;;;;;;5.00;4.20;;;;;;;;;;4218677;34;20188;-62
2021/11/27 00:42:49;;;;;;;4.47;3.90;;;;;;;;;;4218742;34;21199;-62
2021/11/27 00:45:16;;;;;;;6.03;4.07;;;;;;;;;;4218640;34;20144;-62
2021/11/27 00:47:46;;;;;;;4.05;3.65;;;;;;;;;;4206012;34;20547;-62
2021/11/27 00:50:13;;;;;;;5.47;3.75;;;;;;;;;;4218335;34;20442;-62
2021/11/27 00:52:40;;;;;;;4.32;3.92;;;;;;;;;;4221298;33;20533;-62
2021/11/27 00:55:08;;;;;;;4.53;3.80;;;;;;;;;;4232497;33;20224;-70
2021/11/27 00:57:34;;;;;;;4.57;4.18;;;;;;;;;;4232548;33;20203;-68
2021/11/27 01:00:01;;;;;;;4.28;3.87;;;;;;;;;;4218600;33;20128;-68
2021/11/27 01:02:27;;;;;;;9.63;4.57;;;;;;;;;;4219570;33;20547;-68
2021/11/27 01:04:53;;;;;;;5.35;4.43;;;;;;;;;;4232492;33;20093;-68
2021/11/27 01:07:19;;;;;;;8.15;4.22;;;;;;;;;;4232425;33;20140;-68
2021/11/27 01:09:45;;;;;;;6.40;5.05;;;;;;;;;;4232487;33;20125;-68
2021/11/27 01:12:11;;;;;;;7.10;4.85;;;;;;;;;;4232424;33;20113;-67
2021/11/27 01:14:38;;;;;;;5.32;4.28;;;;;;;;;;4232312;33;20127;-68
2021/11/27 01:17:08;;;;;;;6.30;5.62;;;;;;;;;;4232405;33;20193;-67
2021/11/27 01:19:36;;;;;;;7.10;5.55;;;;;;;;;;4213176;34;20192;-69
2021/11/27 01:22:08;;;;;;;7.18;6.37;;;;;;;;;;4218468;34;20110;-61
2021/11/27 01:24:35;;;;;;;6.82;6.12;;;;;;;;;;4218299;34;20168;-61
2021/11/27 01:27:01;;;;;;;7.68;6.87;;;;;;;;;;4218374;34;20136;-61
2021/11/27 01:29:27;;;;;;;7.80;6.97;;;;;;;;;;4218172;34;20606;-60
2021/11/27 01:31:53;;;;;;;7.30;6.50;;;;;;;;;;4218567;34;20125;-61
2021/11/27 01:34:20;;;;;;;7.00;6.30;;;;;;;;;;4218031;34;20137;-61
2021/11/27 01:36:46;;;;;;;7.32;5.95;;;;;;;;;;4218224;34;20116;-61
2021/11/27 01:39:12;;;;;;;7.18;6.47;;;;;;;;;;4218232;34;20135;-61
2021/11/27 01:41:39;;;;;;;7.75;7.00;;;;;;;;;;4218188;34;20327;-61
2021/11/27 01:44:05;;;;;;;6.95;6.35;;;;;;;;;;4218089;34;20132;-61
2021/11/27 01:46:33;;;;;;;8.20;7.18;;;;;;;;;;4218363;34;20114;-61
2021/11/27 01:49:00;;;;;;;6.62;6.00;;;;;;;;;;4218106;34;20121;-61
2021/11/27 01:51:26;;;;;;;7.80;6.35;;;;;;;;;;4218290;34;20105;-60
2021/11/27 01:53:56;;;;;;;6.70;6.00;;;;;;;;;;4225285;33;20113;-61
2021/11/27 01:56:28;;;;;;;7.80;7.10;;;;;;;;;;4232090;33;20532;-61
2021/11/27 01:58:54;;;;;;;7.43;6.47;;;;;;;;;;4231940;33;20201;-61
2021/11/27 02:01:24;;;;;;;6.93;6.25;;;;;;;;;;4232030;33;20529;-61
2021/11/27 02:03:51;;;;;;;7.10;6.40;;;;;;;;;;4232078;33;20117;-61
2021/11/27 02:06:19;;;;;;;7.78;6.75;;;;;;;;;;4231968;33;20217;-61
2021/11/27 02:08:49;;;;;;;7.35;6.65;;;;;;;;;;4231854;33;20498;-61
2021/11/27 02:11:18;;;;;;;7.47;6.68;;;;;;;;;;4232107;33;20196;-61
2021/11/27 02:13:44;;;;;;;8.10;7.30;;;;;;;;;;4233950;33;20596;-61
2021/11/27 02:16:11;;;;;;;8.02;7.22;;;;;;;;;;4234333;33;20123;-62
2021/11/27 02:18:37;;;;;;;8.02;7.07;;;;;;;;;;4233679;33;20445;-60
2021/11/27 02:21:21;;;;;;;7.68;6.97;;;;;;;;;;4223701;33;20182;-61
2021/11/27 02:23:48;;;;;;;7.85;7.00;;;;;;;;;;4219955;34;20158;-61
2021/11/27 02:26:18;;;;;;;7.28;6.43;;;;;;;;;;4219913;34;20128;-61
2021/11/27 02:28:55;;;;;;;7.50;6.70;;;;;;;;;;4219961;34;20681;-61
2021/11/27 02:31:24;;;;;;;8.20;6.72;;;;;;;;;;4219946;34;20118;-61
2021/11/27 02:33:55;;;;;;;7.95;6.85;;;;;;;;;;4219740;34;20140;-61
2021/11/27 02:36:23;;;;;;;7.80;6.90;;;;;;;;;;4219913;34;20505;-61
2021/11/27 02:38:49;;;;;;;8.30;6.90;;;;;;;;;;4219833;34;20464;-60
2021/11/27 02:41:15;;;;;;;7.25;6.55;;;;;;;;;;4219759;34;20556;-61
2021/11/27 02:43:42;;;;;;;7.75;6.95;;;;;;;;;;4219473;34;20120;-61
2021/11/27 02:46:08;;;;;;;8.10;7.00;;;;;;;;;;4219843;34;20105;-61
2021/11/27 02:48:34;;;;;;;7.32;6.62;;;;;;;;;;4219574;34;20566;-61
2021/11/27 02:51:00;;;;;;;7.53;6.68;;;;;;;;;;4219855;34;20114;-61
2021/11/27 02:53:26;;;;;;;6.82;5.82;;;;;;;;;;4219683;34;20124;-61
2021/11/27 02:55:52;;;;;;;7.30;6.60;;;;;;;;;;4219618;34;20129;-61
2021/11/27 02:58:19;;;;;;;7.68;5.95;;;;;;;;;;4219526;34;20110;-61
2021/11/27 03:00:45;;;;;;;7.72;6.95;;;;;;;;;;4219609;34;20102;-60
2021/11/27 03:03:12;;;;;;;7.37;6.28;;;;;;;;;;4219814;34;20100;-60
2021/11/27 03:05:38;;;;;;;7.68;6.90;;;;;;;;;;4206785;34;20090;-61
2021/11/27 03:08:04;;;;;;;8.18;6.60;;;;;;;;;;4219616;34;20117;-59
2021/11/27 03:10:31;;;;;;;7.37;6.68;;;;;;;;;;4195235;34;20298;-60
2021/11/27 03:12:57;;;;;;;6.93;6.22;;;;;;;;;;4219737;34;20125;-59
2021/11/27 03:15:23;;;;;;;5.90;5.07;;;;;;;;;;4219512;34;20124;-67
2021/11/27 03:17:49;;;;;;;7.60;6.90;;;;;;;;;;4206672;34;20128;-66
2021/11/27 03:20:18;;;;;;;8.43;6.72;;;;;;;;;;4206637;34;20132;-66
2021/11/27 03:22:44;;;;;;;7.80;6.45;;;;;;;;;;4219051;34;20113;-66
2021/11/27 03:25:11;;;;;;;7.30;6.60;;;;;;;;;;4219379;34;20449;-67
2021/11/27 03:27:38;;;;;;;6.65;5.95;;;;;;;;;;4206646;34;20158;-67
2021/11/27 03:30:12;;;;;;;7.28;6.57;;;;;;;;;;4206400;34;20122;-67
2021/11/27 03:32:38;;;;;;;7.78;6.78;;;;;;;;;;4219249;34;20129;-67
2021/11/27 03:35:05;;;;;;;6.93;6.30;;;;;;;;;;4219202;34;20120;-67
2021/11/27 03:37:31;;;;;;;9.38;7.75;;;;;;;;;;4206414;34;20102;-66
2021/11/27 03:39:57;;;;;;;7.80;7.00;;;;;;;;;;4219289;34;20205;-68
2021/11/27 03:42:24;;;;;;;6.53;5.93;;;;;;;;;;4219429;34;20243;-66
2021/11/27 03:44:52;;;;;;;8.75;7.85;;;;;;;;;;4219157;34;20113;-66
2021/11/27 03:47:18;;;;;;;6.40;5.78;;;;;;;;;;4219074;34;20190;-68
2021/11/27 03:49:45;;;;;;;7.28;6.57;;;;;;;;;;4219236;34;20121;-68
2021/11/27 03:52:11;;;;;;;8.65;7.85;;;;;;;;;;4219086;34;20112;-67
2021/11/27 03:54:37;;;;;;;8.27;7.47;;;;;;;;;;4219380;34;20193;-67
2021/11/27 03:57:03;;;;;;;6.78;5.93;;;;;;;;;;4218975;34;20209;-66
2021/11/27 03:59:29;;;;;;;7.00;6.30;;;;;;;;;;4219023;34;20110;-66
2021/11/27 04:01:56;;;;;;;9.65;8.75;;;;;;;;;;4219159;34;20458;-66
2021/11/27 04:04:22;;;;;;;7.35;6.53;;;;;;;;;;4218988;34;20218;-65
2021/11/27 04:06:49;;;;;;;7.82;6.47;;;;;;;;;;4194779;34;20223;-67
2021/11/27 04:09:15;;;;;;;7.60;6.90;;;;;;;;;;4218805;34;20121;-67
2021/11/27 04:11:42;;;;;;;8.10;6.10;;;;;;;;;;4219111;34;20117;-68
2021/11/27 04:14:08;;;;;;;7.18;6.30;;;;;;;;;;4218733;34;20527;-67
2021/11/27 04:16:34;;;;;;;7.25;6.50;;;;;;;;;;4218804;34;20109;-65
2021/11/27 04:19:00;;;;;;;6.95;6.28;;;;;;;;;;4218290;34;20514;-65
2021/11/27 04:21:27;;;;;;;7.18;6.47;;;;;;;;;;4218615;34;20448;-65
2021/11/27 04:23:53;;;;;;;6.90;6.20;;;;;;;;;;4218961;34;20101;-64
2021/11/27 04:26:20;;;;;;;8.82;7.15;;;;;;;;;;4218893;34;20442;-63
2021/11/27 04:28:48;;;;;;;7.15;6.50;;;;;;;;;;4218817;34;20461;-63
2021/11/27 04:31:17;;;;;;;7.60;6.18;;;;;;;;;;4206068;34;20129;-63
2021/11/27 04:33:47;;;;;;;6.87;6.28;;;;;;;;;;4218530;34;20134;-63
2021/11/27 04:36:13;;;;;;;6.30;5.55;;;;;;;;;;4218534;34;20089;-63
2021/11/27 04:38:40;;;;;;;7.40;6.05;;;;;;;;;;4218710;34;20113;-63
2021/11/27 04:41:06;;;;;;;7.28;6.03;;;;;;;;;;4218830;34;20197;-63
2021/11/27 04:43:32;;;;;;;6.68;6.05;;;;;;;;;;4218506;34;20517;-63
2021/11/27 04:45:58;;;;;;;7.32;5.97;;;;;;;;;;4218595;34;20098;-63
2021/11/27 04:48:24;;;;;;;6.18;4.97;;;;;;;;;;4216761;34;20138;-64
2021/11/27 04:50:50;;;;;;;7.82;7.00;;;;;;;;;;4202404;34;20192;-63
2021/11/27 04:53:16;;;;;;;8.25;7.45;;;;;;;;;;4205014;34;20096;-63
2021/11/27 04:55:43;;;;;;;6.57;5.70;;;;;;;;;;4218154;34;20333;-63
2021/11/27 04:58:10;;;;;;;6.65;5.75;;;;;;;;;;4218265;34;20121;-63
2021/11/27 05:00:50;;;;;;;7.82;5.82;;;;;;;;;;4218042;34;20113;-63
2021/11/27 05:03:17;;;;;;;6.20;5.57;;;;;;;;;;4218166;34;20446;-63
2021/11/27 05:05:43;;;;;;;6.72;4.90;;;;;;;;;;4217682;34;20486;-63
2021/11/27 05:08:09;;;;;;;6.10;5.28;;;;;;;;;;4218053;34;20545;-63
2021/11/27 05:10:35;;;;;;;5.37;4.85;;;;;;;;;;4217699;34;20520;-64
2021/11/27 05:13:01;;;;;;;5.80;5.30;;;;;;;;;;4217802;34;20121;-63
2021/11/27 05:15:27;;;;;;;9.68;4.55;;;;;;;;;;4218053;34;20133;-64
2021/11/27 05:17:53;;;;;;;5.70;5.20;;;;;;;;;;4218085;34;20126;-66
2021/11/27 05:20:19;;;;;;;6.50;5.47;;;;;;;;;;4218198;34;20120;-68
2021/11/27 05:22:45;;;;;;;5.50;4.93;;;;;;;;;;4218176;34;20117;-65
2021/11/27 05:25:12;;;;;;;9.07;6.90;;;;;;;;;;4218095;34;20544;-68
2021/11/27 05:27:38;;;;;;;6.18;5.57;;;;;;;;;;4217632;34;20530;-69
2021/11/27 05:30:07;;;;;;;5.62;5.10;;;;;;;;;;4217939;34;20217;-73
2021/11/27 05:32:49;;;;;;;4.93;4.43;;;;;;;;;;4194095;34;20101;-73
2021/11/27 05:35:16;;;;;;;5.45;4.95;;;;;;;;;;4206513;34;20117;-61
2021/11/27 05:37:43;;;;;;;5.72;5.12;;;;;;;;;;4227578;33;20117;-62
2021/11/27 05:40:11;;;;;;;6.97;5.10;;;;;;;;;;4218918;33;20097;-62
2021/11/27 05:42:37;;;;;;;5.60;4.75;;;;;;;;;;4231710;33;20116;-62
2021/11/27 05:45:04;;;;;;;6.35;5.18;;;;;;;;;;4231619;33;20187;-62
2021/11/27 05:47:30;;;;;;;6.30;4.95;;;;;;;;;;4231126;33;20125;-62
2021/11/27 05:49:56;;;;;;;5.45;4.70;;;;;;;;;;4231646;33;20127;-61
2021/11/27 05:52:22;;;;;;;5.47;4.47;;;;;;;;;;4218511;33;20506;-61
2021/11/27 05:54:48;;;;;;;5.15;4.65;;;;;;;;;;4231632;33;20127;-62
2021/11/27 05:57:14;;;;;;;4.30;3.90;;;;;;;;;;4231480;33;20090;-62
2021/11/27 05:59:41;;;;;;;7.78;4.75;;;;;;;;;;4231677;33;20111;-61
2021/11/27 06:02:07;;;;;;;5.55;4.55;;;;;;;;;;4231459;33;20179;-62
2021/11/27 06:04:33;;;;;;;5.72;5.00;;;;;;;;;;4231523;33;20116;-62
2021/11/27 06:06:59;;;;;;;5.40;4.78;;;;;;;;;;4231625;33;20121;-62
2021/11/27 06:09:25;;;;;;;5.03;4.53;;;;;;;;;;4211603;33;20090;-63
2021/11/27 06:11:51;;;;;;;5.45;4.80;;;;;;;;;;4203576;34;20196;-62
2021/11/27 06:14:17;;;;;;;5.60;4.95;;;;;;;;;;4203213;34;20102;-75
2021/11/27 06:16:43;;;;;;;5.37;4.87;;;;;;;;;;4203718;34;20205;-62
2021/11/27 06:19:10;;;;;;;5.90;4.90;;;;;;;;;;4203473;34;20201;-62
2021/11/27 06:21:36;;;;;;;7.82;4.90;;;;;;;;;;4216494;34;20121;-62
2021/11/27 06:24:02;;;;;;;5.68;5.12;;;;;;;;;;4217278;34;20113;-62
2021/11/27 06:26:28;;;;;;;6.60;4.30;;;;;;;;;;4217465;34;20098;-62
2021/11/27 06:28:55;;;;;;;5.30;4.78;;;;;;;;;;4217671;34;20105;-62
2021/11/27 06:31:21;;;;;;;5.57;5.07;;;;;;;;;;4217647;34;20105;-62
2021/11/27 06:33:47;;;;;;;5.85;4.85;;;;;;;;;;4217432;34;20530;-61
2021/11/27 06:36:13;;;;;;;7.22;4.55;;;;;;;;;;4217328;34;20137;-62
2021/11/27 06:38:39;;;;;;;6.35;4.30;;;;;;;;;;4217234;34;20104;-62
2021/11/27 06:41:05;;;;;;;6.50;4.20;;;;;;;;;;4217294;34;20133;-62
2021/11/27 06:43:31;;;;;;;6.18;4.60;;;;;;;;;;4217275;34;20124;-62
2021/11/27 06:45:58;;;;;;;9.75;4.50;;;;;;;;;;4217356;34;20209;-62
2021/11/27 06:48:24;;;;;;;6.47;4.32;;;;;;;;;;4217252;34;20125;-62
2021/11/27 06:50:50;;;;;;;5.32;4.62;;;;;;;;;;4217379;34;20135;-63
2021/11/27 06:53:16;;;;;;;4.95;4.35;;;;;;;;;;4217227;34;20125;-61
2021/11/27 06:55:42;;;;;;;5.03;4.25;;;;;;;;;;4217000;34;20116;-62
2021/11/27 06:58:08;;;;;;;6.12;4.53;;;;;;;;;;4204145;34;20224;-61
2021/11/27 07:00:35;;;;;;;5.62;4.05;;;;;;;;;;4219306;34;20117;-62
2021/11/27 07:03:01;;;;;;;5.25;4.60;;;;;;;;;;4219415;34;20113;-62
2021/11/27 07:05:27;;;;;;;5.28;4.47;;;;;;;;;;4219337;34;20450;-61
2021/11/27 07:07:53;;;;;;;6.57;4.68;;;;;;;;;;4219223;34;20135;-62
2021/11/27 07:10:19;;;;;;;5.85;4.25;;;;;;;;;;4219218;34;20125;-62
2021/11/27 07:12:45;;;;;;;9.00;3.47;;;;;;;;;;4219189;34;20129;-66
2021/11/27 07:15:11;;;;;;;4.32;3.65;;;;;;;;;;4219076;34;20536;-65
2021/11/27 07:17:38;;;;;;;5.60;4.30;;;;;;;;;;4206132;34;20125;-68
2021/11/27 07:20:06;;;;;;;5.37;3.80;;;;;;;;;;4206112;34;20665;-67
2021/11/27 07:22:32;;;;;;;5.72;4.18;;;;;;;;;;4219001;34;20564;-67
2021/11/27 07:24:58;;;;;;;5.65;4.40;;;;;;;;;;4219119;34;20439;-67
2021/11/27 07:27:24;;;;;;;5.87;4.82;;;;;;;;;;4219266;34;20125;-67
2021/11/27 07:29:51;;;;;;;7.78;4.80;;;;;;;;;;4218979;34;20197;-67
2021/11/27 07:32:17;;;;;;;5.12;4.30;;;;;;;;;;4218932;34;20221;-67
2021/11/27 07:34:43;;;;;;;4.70;4.00;;;;;;;;;;4218956;34;20090;-67
2021/11/27 07:37:09;;;;;;;4.12;3.72;;;;;;;;;;4219116;34;20109;-67
2021/11/27 07:39:37;;;;;;;4.90;3.60;;;;;;;;;;4219000;34;20204;-67
2021/11/27 07:42:03;;;;;;;3.85;3.42;;;;;;;;;;4206354;34;20522;-67
2021/11/27 07:44:29;;;;;;;5.87;4.32;;;;;;;;;;4218824;34;20206;-67
2021/11/27 07:46:56;;;;;;;4.20;3.80;;;;;;;;;;4219028;34;20132;-74
2021/11/27 07:49:24;;;;;;;5.43;4.03;;;;;;;;;;4218735;34;20097;-67
2021/11/27 07:51:50;;;;;;;9.05;5.00;;;;;;;;;;4218979;34;20184;-66
2021/11/27 07:54:17;;;;;;;9.02;6.05;;;;;;;;;;4218929;34;20224;-65
2021/11/27 07:56:43;;;;;;;12.48;6.70;;;;;;;;;;4218939;34;20097;-67
2021/11/27 07:59:09;;;;;;;4.60;3.70;;;;;;;;;;4218831;34;20104;-67
2021/11/27 08:01:35;;;;;;;8.95;6.20;;;;;;;;;;4218848;34;20109;-67
2021/11/27 08:04:01;;;;;;;9.35;6.37;;;;;;;;;;4218793;34;20117;-64
2021/11/27 08:06:27;;;;;;;5.75;4.25;;;;;;;;;;4218806;34;20212;-65
2021/11/27 08:08:53;;;;;;;8.18;6.37;;;;;;;;;;4218770;34;20109;-62
2021/11/27 08:11:21;;;;;;;8.43;5.62;;;;;;;;;;4218616;34;20553;-64
2021/11/27 08:13:48;;;;;;;5.10;4.20;;;;;;;;;;4181685;34;20473;-64
2021/11/27 08:16:18;;;;;;;6.62;4.97;;;;;;;;;;4216588;34;20557;-64
2021/11/27 08:18:44;;;;;;;9.10;5.20;;;;;;;;;;4217291;34;20116;-64
2021/11/27 08:21:10;;;;;;;10.38;7.03;;;;;;;;;;4217761;34;20281;-64
2021/11/27 08:23:37;;;;;;;10.82;6.80;;;;;;;;;;4217865;34;20109;-64
2021/11/27 08:26:03;;;;;;;15.10;10.15;;;;;;;;;;4217762;34;20119;-64
2021/11/27 08:28:29;;;;;;;9.60;6.20;;;;;;;;;;4217142;34;20117;-64
2021/11/27 08:30:55;;;;;;;12.18;6.53;;;;;;;;;;4217752;34;20109;-64
2021/11/27 08:33:21;;;;;;;10.85;5.87;;;;;;;;;;4218723;34;20145;-64
2021/11/27 08:35:48;;;;;;;4.45;3.95;;;;;;;;;;4218577;34;20105;-64
2021/11/27 08:38:14;;;;;;;4.37;3.50;;;;;;;;;;4205951;34;20237;-64
2021/11/27 08:40:40;;;;;;;8.45;3.90;;;;;;;;;;4218565;34;20140;-65
2021/11/27 08:43:06;;;;;;;5.25;2.83;;;;;;;;;;4218677;34;20121;-64
2021/11/27 08:45:32;;;;;;;4.65;3.37;;;;;;;;;;4218545;34;20200;-65
2021/11/27 08:47:58;;;;;;;5.03;3.25;;;;;;;;;;4218504;34;20121;-65
2021/11/27 08:50:24;;;;;;;4.35;3.08;;;;;;;;;;4218539;34;20209;-65
2021/11/27 08:52:50;;;;;;;5.03;3.20;;;;;;;;;;4218315;34;20249;-64
2021/11/27 08:55:17;;;;;;;5.97;3.40;;;;;;;;;;4218470;34;20100;-64
2021/11/27 08:57:43;;;;;;;5.55;3.30;;;;;;;;;;4218200;34;20120;-64
2021/11/27 09:00:11;;;;;;;4.78;3.95;;;;;;;;;;4205716;34;20454;-64
2021/11/27 09:02:39;;;;;;;5.05;4.10;;;;;;;;;;4205438;34;20133;-64
2021/11/27 09:05:06;;;;;;;5.55;3.17;;;;;;;;;;4218431;34;20093;-64
2021/11/27 09:07:32;;;;;;;4.50;3.30;;;;;;;;;;4218231;34;20137;-64
2021/11/27 09:09:58;;;;;;;3.65;2.80;;;;;;;;;;4218533;34;20101;-64
2021/11/27 09:12:24;;;;;;;3.90;2.85;;;;;;;;;;4218272;34;20120;-64
2021/11/27 09:14:51;;;;;;;4.07;2.50;;;;;;;;;;4218509;34;20125;-64
2021/11/27 09:17:18;;;;;;;4.37;3.00;;;;;;;;;;4218286;34;20110;-64
2021/11/27 09:19:44;;;;;;;4.12;3.00;;;;;;;;;;4218277;34;20136;-64
2021/11/27 09:22:11;;;;;;;6.60;3.95;;;;;;;;;;4217356;34;20133;-64
2021/11/27 09:24:37;;;;;;;4.97;3.83;;;;;;;;;;4194048;34;20127;-64
2021/11/27 09:27:03;;;;;;;6.85;3.70;;;;;;;;;;4218179;34;20117;-64
2021/11/27 09:29:29;;;;;;;6.65;4.00;;;;;;;;;;4218195;34;20121;-64
2021/11/27 09:31:56;;;;;;;4.07;3.67;;;;;;;;;;4218241;34;20110;-64
2021/11/27 09:34:22;;;;;;;4.15;3.37;;;;;;;;;;4205681;34;20128;-64
2021/11/27 09:37:25;;;;;;;;;;;;;;;;;;;;;
2021/11/27 09:40:21;;;;;;;4.90;3.37;;;;;;;;;;4196717;34;20202;-64
2021/11/27 09:42:52;;;;;;;8.32;3.00;;;;;;;;;;4218033;34;20149;-64
2021/11/27 09:45:25;;;;;;;4.90;3.62;;;;;;;;;;4218376;34;20121;-64
2021/11/27 09:47:53;;;;;;;5.10;3.95;;;;;;;;;;4218038;34;20097;-64
2021/11/27 09:50:20;;;;;;;6.68;3.45;;;;;;;;;;4218033;34;20216;-64
2021/11/27 09:52:47;;;;;;;4.85;3.60;;;;;;;;;;4218051;34;20090;-64
2021/11/27 09:55:17;;;;;;;7.62;4.25;;;;;;;;;;4218056;34;20113;-64
2021/11/27 09:57:48;;;;;;;4.60;3.72;;;;;;;;;;4217985;34;20129;-64
2021/11/27 10:00:16;;;;;;;5.10;3.37;;;;;;;;;;4218089;34;20098;-65
2021/11/27 10:02:43;;;;;;;8.10;4.00;;;;;;;;;;4217949;34;20105;-65
2021/11/27 10:05:11;;;;;;;6.87;3.70;;;;;;;;;;4205246;34;20124;-64
2021/11/27 10:07:40;;;;;;;8.13;4.60;;;;;;;;;;4217884;34;20101;-64
2021/11/27 10:10:06;;;;;;;5.93;4.10;;;;;;;;;;4217866;34;20537;-64
2021/11/27 10:12:33;;;;;;;6.57;4.07;;;;;;;;;;4217759;34;20109;-64
2021/11/27 10:14:59;;;;;;;4.45;3.33;;;;;;;;;;4217721;34;20196;-64
2021/11/27 10:17:29;;;;;;;4.87;4.15;;;;;;;;;;4217732;34;20113;-64
2021/11/27 10:20:00;;;;;;;4.30;3.90;;;;;;;;;;4217708;34;20101;-64
2021/11/27 10:22:38;;;;;;;3.85;3.47;;;;;;;;;;4217691;34;20435;-64
2021/11/27 10:25:34;;;;;;;5.97;3.95;;;;;;;;;;4217852;34;20116;-65
2021/11/27 10:28:05;;;;;;;5.15;4.65;;;;;;;;;;4214519;34;20125;-65
2021/11/27 10:30:40;;;;;;;5.05;4.55;;;;;;;;;;4217678;34;20148;-65
2021/11/27 10:33:06;;;;;;;6.55;5.30;;;;;;;;;;4205629;34;20548;-65
2021/11/27 10:35:32;;;;;;;5.50;4.40;;;;;;;;;;4219816;34;20538;-64
2021/11/27 10:37:58;;;;;;;5.60;5.03;;;;;;;;;;4219920;34;20117;-65
2021/11/27 10:40:29;;;;;;;6.45;5.57;;;;;;;;;;4206723;34;20212;-65
2021/11/27 10:43:00;;;;;;;4.93;4.43;;;;;;;;;;4219720;34;20117;-64
2021/11/27 10:45:28;;;;;;;7.70;4.82;;;;;;;;;;4219635;34;20218;-65
2021/11/27 10:48:26;;;;;;;7.62;4.75;;;;;;;;;;4219590;34;20220;-64
2021/11/27 10:51:00;;;;;;;6.75;4.87;;;;;;;;;;4219601;34;20113;-65
2021/11/27 10:53:32;;;;;;;6.03;4.80;;;;;;;;;;4219943;34;20094;-64
2021/11/27 10:56:10;;;;;;;5.95;5.07;;;;;;;;;;4206661;34;20228;-64
2021/11/27 10:58:59;;;;;;;8.63;5.00;;;;;;;;;;4219833;34;20093;-65
2021/11/27 11:01:25;;;;;;;8.23;4.70;;;;;;;;;;4219783;34;20515;-65
2021/11/27 11:03:51;;;;;;;7.20;5.15;;;;;;;;;;4219434;34;20545;-65
2021/11/27 11:06:19;;;;;;;6.30;5.37;;;;;;;;;;4219558;34;20125;-64
2021/11/27 11:08:47;;;;;;;9.68;6.97;;;;;;;;;;4206476;34;20108;-65
2021/11/27 11:11:23;;;;;;;7.32;6.05;;;;;;;;;;4219562;34;20105;-65
2021/11/27 11:13:55;;;;;;;14.32;8.05;;;;;;;;;;4206581;34;20116;-65
2021/11/27 11:16:22;;;;;;;9.55;6.18;;;;;;;;;;4219599;34;20105;-65
2021/11/27 11:18:51;;;;;;;6.20;5.57;;;;;;;;;;4219125;34;20115;-65
2021/11/27 11:21:19;;;;;;;6.10;4.22;;;;;;;;;;4219235;34;20093;-64
2021/11/27 11:23:45;;;;;;;5.55;4.90;;;;;;;;;;4219255;34;20109;-65
2021/11/27 11:26:12;;;;;;;8.35;7.05;;;;;;;;;;4219311;34;20124;-65
2021/11/27 11:28:51;;;;;;;7.50;6.43;;;;;;;;;;4219227;34;20137;-65
2021/11/27 11:31:23;;;;;;;8.75;6.85;;;;;;;;;;4219545;34;20112;-65
2021/11/27 11:33:57;;;;;;;6.75;6.05;;;;;;;;;;4219211;34;20145;-65
2021/11/27 11:36:24;;;;;;;6.00;5.40;;;;;;;;;;4219195;34;20648;-65
2021/11/27 11:38:53;;;;;;;7.10;5.97;;;;;;;;;;4219056;34;20124;-65
2021/11/27 11:41:20;;;;;;;8.02;7.10;;;;;;;;;;4219162;34;20501;-65
2021/11/27 11:43:48;;;;;;;9.55;8.55;;;;;;;;;;4205939;34;20152;-64
2021/11/27 11:46:14;;;;;;;9.93;7.90;;;;;;;;;;4218861;34;20200;-65
2021/11/27 11:48:47;;;;;;;7.75;6.90;;;;;;;;;;4218946;34;20206;-64
2021/11/27 11:51:12;;;;;;;10.07;7.55;;;;;;;;;;4206229;34;20123;-65
2021/11/27 11:53:44;;;;;;;9.93;8.27;;;;;;;;;;4219250;34;20125;-64
2021/11/27 11:56:10;;;;;;;7.80;7.00;;;;;;;;;;4218866;34;20480;-65
2021/11/27 11:58:42;;;;;;;8.50;5.60;;;;;;;;;;4218897;34;20220;-64
2021/11/27 12:01:15;;;;;;;7.00;6.00;;;;;;;;;;4206263;34;20104;-65
2021/11/27 12:03:43;;;;;;;6.15;4.85;;;;;;;;;;4219047;34;20109;-65
2021/11/27 12:06:26;;;;;;;8.48;7.30;;;;;;;;;;4218895;34;20204;-64
2021/11/27 12:08:52;;;;;;;11.00;9.15;;;;;;;;;;4218789;34;20116;-64
2021/11/27 12:11:46;;;;;;;8.30;6.35;;;;;;;;;;4218746;34;20110;-64
2021/11/27 12:14:21;;;;;;;10.65;8.20;;;;;;;;;;4218771;34;20224;-64
2021/11/27 12:17:04;;;;;;;8.80;7.90;;;;;;;;;;4219137;34;20208;-65
2021/11/27 12:19:38;;;;;;;11.18;8.80;;;;;;;;;;4218445;34;20216;-67
2021/11/27 12:22:22;;;;;;;8.18;7.37;;;;;;;;;;4218762;34;20114;-67
2021/11/27 12:25:08;;;;;;;7.43;6.07;;;;;;;;;;4218681;34;20240;-64
2021/11/27 12:27:59;;;;;;;9.90;7.18;;;;;;;;;;4218673;34;20127;-64
2021/11/27 12:30:26;;;;;;;7.65;6.82;;;;;;;;;;4218659;34;20125;-64
2021/11/27 12:32:53;;;;;;;7.28;6.47;;;;;;;;;;4218973;34;20141;-64
2021/11/27 12:35:28;;;;;;;7.47;6.32;;;;;;;;;;4218686;34;20216;-64
2021/11/27 12:38:30;;;;;;;8.45;6.68;;;;;;;;;;4218664;34;20101;-64
2021/11/27 12:40:58;;;;;;;7.47;6.50;;;;;;;;;;4216684;34;20535;-64
2021/11/27 12:43:24;;;;;;;7.15;6.05;;;;;;;;;;4218517;34;20120;-65
2021/11/27 12:45:57;;;;;;;8.32;6.32;;;;;;;;;;4205876;34;20098;-65
2021/11/27 12:48:29;;;;;;;7.47;5.93;;;;;;;;;;4218474;34;20093;-65
2021/11/27 12:51:19;;;;;;;7.03;5.90;;;;;;;;;;4218990;34;20537;-64
2021/11/27 12:54:00;;;;;;;8.02;5.43;;;;;;;;;;4218523;34;20506;-65
2021/11/27 12:56:31;;;;;;;8.70;5.70;;;;;;;;;;4218617;34;20143;-65
2021/11/27 12:58:58;;;;;;;7.75;6.60;;;;;;;;;;4205783;34;20113;-65
2021/11/27 13:01:31;;;;;;;5.60;5.00;;;;;;;;;;4218644;34;20121;-65
2021/11/27 13:03:58;;;;;;;6.07;5.47;;;;;;;;;;4218482;34;20105;-64
2021/11/27 13:06:25;;;;;;;8.88;7.97;;;;;;;;;;4218331;34;20117;-65
2021/11/27 13:08:51;;;;;;;10.70;8.30;;;;;;;;;;4218393;34;20221;-65
2021/11/27 13:11:20;;;;;;;9.18;7.82;;;;;;;;;;4218610;34;20515;-65
2021/11/27 13:13:49;;;;;;;7.37;6.22;;;;;;;;;;4218410;34;20097;-65
2021/11/27 13:16:20;;;;;;;9.07;5.80;;;;;;;;;;4205434;34;20081;-64
2021/11/27 13:18:49;;;;;;;9.25;6.65;;;;;;;;;;4218314;34;20198;-64
2021/11/27 13:21:16;;;;;;;7.25;6.22;;;;;;;;;;4218428;34;20188;-64
2021/11/27 13:23:43;;;;;;;7.47;6.47;;;;;;;;;;4205417;34;20221;-65
2021/11/27 13:26:20;;;;;;;8.30;7.20;;;;;;;;;;4218445;34;20113;-65
2021/11/27 13:28:52;;;;;;;10.30;7.72;;;;;;;;;;4218289;34;20128;-65
2021/11/27 13:31:30;;;;;;;9.30;8.10;;;;;;;;;;4218153;34;20097;-65
2021/11/27 13:33:57;;;;;;;9.40;8.15;;;;;;;;;;4218237;34;20557;-65
2021/11/27 13:36:29;;;;;;;10.07;7.20;;;;;;;;;;4218283;34;20521;-65
2021/11/27 13:38:56;;;;;;;6.87;4.85;;;;;;;;;;4218123;34;20525;-65
2021/11/27 13:41:22;;;;;;;6.15;4.97;;;;;;;;;;4218299;34;20190;-65
2021/11/27 13:43:49;;;;;;;6.32;4.80;;;;;;;;;;4218142;34;20088;-65
2021/11/27 13:46:16;;;;;;;9.02;6.03;;;;;;;;;;4217992;34;20110;-65
2021/11/27 13:48:42;;;;;;;9.27;5.60;;;;;;;;;;4218129;34;20117;-65
2021/11/27 13:51:08;;;;;;;6.80;5.25;;;;;;;;;;4218089;34;20456;-65
2021/11/27 13:53:34;;;;;;;6.65;5.68;;;;;;;;;;4217982;34;20221;-65
2021/11/27 13:56:03;;;;;;;5.93;5.22;;;;;;;;;;4217788;34;20224;-64
2021/11/27 13:58:29;;;;;;;7.12;5.72;;;;;;;;;;4217847;34;20145;-65
2021/11/27 14:01:01;;;;;;;8.15;6.32;;;;;;;;;;4218079;34;20096;-64
2021/11/27 14:03:32;;;;;;;8.90;6.68;;;;;;;;;;4218009;34;20145;-65
2021/11/27 14:06:09;;;;;;;8.20;7.03;;;;;;;;;;4218003;34;20442;-65
2021/11/27 14:08:35;;;;;;;9.07;6.28;;;;;;;;;;4219352;34;20102;-65
2021/11/27 14:11:10;;;;;;;10.75;6.55;;;;;;;;;;4220071;34;20125;-65
2021/11/27 14:13:57;;;;;;;8.80;6.60;;;;;;;;;;4220074;34;20545;-64
2021/11/27 14:16:25;;;;;;;9.50;6.12;;;;;;;;;;4220082;34;20134;-64
2021/11/27 14:18:51;;;;;;;18.10;13.55;;;;;;;;;;4219872;34;20192;-64
2021/11/27 14:21:18;;;;;;;7.85;6.10;;;;;;;;;;4206844;34;20598;-64
2021/11/27 14:23:47;;;;;;;7.25;5.65;;;;;;;;;;4219941;34;20129;-64
2021/11/27 14:26:23;;;;;;;6.07;4.87;;;;;;;;;;4206862;34;20133;-65
2021/11/27 14:28:54;;;;;;;5.43;4.40;;;;;;;;;;4219817;34;20201;-64
2021/11/27 14:31:29;;;;;;;4.65;4.15;;;;;;;;;;4219813;34;20129;-65
2021/11/27 14:33:59;;;;;;;6.07;3.85;;;;;;;;;;4219888;34;20545;-63
2021/11/27 14:36:30;;;;;;;8.07;4.37;;;;;;;;;;4219897;34;20220;-65
2021/11/27 14:38:58;;;;;;;6.43;4.40;;;;;;;;;;4219847;34;20569;-64
2021/11/27 14:41:33;;;;;;;7.35;4.30;;;;;;;;;;4219884;34;20105;-65
2021/11/27 14:44:06;;;;;;;5.47;4.45;;;;;;;;;;4219758;34;20121;-64
2021/11/27 14:46:51;;;;;;;5.62;4.43;;;;;;;;;;4219799;34;20109;-64
2021/11/27 14:49:34;;;;;;;8.97;4.20;;;;;;;;;;4219824;34;20109;-65
2021/11/27 14:52:17;;;;;;;5.55;4.78;;;;;;;;;;4219770;34;20117;-64
2021/11/27 14:54:46;;;;;;;7.50;4.62;;;;;;;;;;4219447;34;20667;-65
2021/11/27 14:57:13;;;;;;;7.90;5.10;;;;;;;;;;4219648;34;20525;-64
2021/11/27 14:59:56;;;;;;;8.65;5.00;;;;;;;;;;4219607;34;20542;-65
2021/11/27 15:02:30;;;;;;;6.00;5.40;;;;;;;;;;4219630;34;20110;-65
2021/11/27 15:04:57;;;;;;;6.55;4.40;;;;;;;;;;4219814;34;20110;-64
2021/11/27 15:07:23;;;;;;;8.13;5.85;;;;;;;;;;4206618;34;20555;-65
2021/11/27 15:09:49;;;;;;;6.07;4.45;;;;;;;;;;4219468;34;20118;-64